createdAt,value
2022-11-20T00:00:03.395Z,3.47
2022-11-20T00:03:10.017Z,2.50
2022-11-20T00:06:16.450Z,2.33
2022-11-20T00:09:19.865Z,5.28
2022-11-20T00:12:23.093Z,5.25
2022-11-20T00:15:26.344Z,8.88
2022-11-20T00:18:30.216Z,5.72
2022-11-20T00:21:33.513Z,4.95
2022-11-20T00:24:41.687Z,8.07
2022-11-20T00:27:45.972Z,2.45
2022-11-20T00:30:48.905Z,3.50
2022-11-20T00:33:52.420Z,3.25
2022-11-20T00:36:55.995Z,4.15
2022-11-20T00:39:59.090Z,4.68
2022-11-20T00:43:02.058Z,5.22
2022-11-20T00:46:14.648Z,5.53
2022-11-20T00:49:17.851Z,4.40
2022-11-20T00:52:20.877Z,10.03
2022-11-20T00:55:23.852Z,2.00
2022-11-20T00:58:30.344Z,4.85
2022-11-20T01:01:33.509Z,22.67
2022-11-20T01:04:36.591Z,4.82
2022-11-20T01:07:39.640Z,3.28
2022-11-20T01:10:42.711Z,7.28
2022-11-20T01:13:47.446Z,4.03
2022-11-20T01:16:52.892Z,6.85
2022-11-20T01:19:56.120Z,5.30
2022-11-20T01:22:59.086Z,3.47
2022-11-20T01:26:04.198Z,6.40
2022-11-20T01:29:08.644Z,4.75
2022-11-20T01:32:11.665Z,15.60
2022-11-20T01:35:14.800Z,7.22
2022-11-20T01:38:18.796Z,5.97
2022-11-20T01:41:41.856Z,1.25
2022-11-20T01:44:55.354Z,4.95
2022-11-20T01:47:58.419Z,14.95
2022-11-20T01:51:03.019Z,7.65
2022-11-20T01:54:11.471Z,8.13
2022-11-20T01:57:15.774Z,11.43
2022-11-20T02:03:23.078Z,4.77
2022-11-20T02:06:33.541Z,7.47
2022-11-20T02:09:36.907Z,4.85
2022-11-20T02:12:58.828Z,5.87
2022-11-20T02:16:02.549Z,3.65
2022-11-20T02:19:13.603Z,7.20
2022-11-20T02:22:28.186Z,9.75
2022-11-20T02:28:35.595Z,3.72
2022-11-20T02:31:41.940Z,10.43
2022-11-20T02:34:45.056Z,5.35
2022-11-20T02:37:54.567Z,6.75
2022-11-20T02:40:57.703Z,4.97
2022-11-20T02:44:00.863Z,9.98
2022-11-20T02:47:04.068Z,27.75
2022-11-20T02:50:07.892Z,48.97
2022-11-20T02:53:11.077Z,104.20
2022-11-20T02:56:14.501Z,43.47
2022-11-20T02:59:17.398Z,43.43
2022-11-20T03:02:20.364Z,35.45
2022-11-20T03:05:23.855Z,6.68
2022-11-20T03:08:27.280Z,8.23
2022-11-20T03:11:30.647Z,25.85
2022-11-20T03:14:33.633Z,5.27
2022-11-20T03:17:36.813Z,5.20
2022-11-20T03:20:39.847Z,9.10
2022-11-20T03:23:43.153Z,8.20
2022-11-20T03:26:46.254Z,6.95
2022-11-20T03:29:49.227Z,9.25
2022-11-20T03:32:55.557Z,10.80
2022-11-20T03:36:03.716Z,9.23
2022-11-20T03:39:07.137Z,10.10
2022-11-20T03:42:30.607Z,14.77
2022-11-20T03:45:33.532Z,8.57
2022-11-20T03:48:36.490Z,16.65
2022-11-20T03:51:39.718Z,5.95
2022-11-20T03:54:42.876Z,9.95
2022-11-20T03:57:46.242Z,13.50
2022-11-20T04:00:49.360Z,10.23
2022-11-20T04:03:55.019Z,12.98
2022-11-20T04:06:58.148Z,14.55
2022-11-20T04:10:01.272Z,18.15
2022-11-20T04:13:04.622Z,15.43
2022-11-20T04:16:09.040Z,25.30
2022-11-20T04:19:17.640Z,17.65
2022-11-20T04:22:20.806Z,29.48
2022-11-20T04:25:27.590Z,19.63
2022-11-20T04:28:31.147Z,47.53
2022-11-20T04:31:36.339Z,17.52
2022-11-20T04:34:40.028Z,25.92
2022-11-20T04:37:43.996Z,38.25
2022-11-20T04:40:47.025Z,36.92
2022-11-20T04:43:51.840Z,26.88
2022-11-20T04:46:55.185Z,19.85
2022-11-20T04:49:58.833Z,14.47
2022-11-20T04:53:02.262Z,32.27
2022-11-20T04:56:09.345Z,15.80
2022-11-20T04:59:12.726Z,13.52
2022-11-20T05:02:16.336Z,16.13
2022-11-20T05:05:21.409Z,12.77
2022-11-20T05:08:24.836Z,8.68
2022-11-20T05:11:30.583Z,13.50
2022-11-20T05:14:34.367Z,9.18
2022-11-20T05:17:38.478Z,17.23
2022-11-20T05:20:41.605Z,8.55
2022-11-20T05:23:46.087Z,13.48
2022-11-20T05:26:49.321Z,12.88
2022-11-20T05:29:52.559Z,8.20
2022-11-20T05:32:55.744Z,5.15
2022-11-20T05:36:02.087Z,7.80
2022-11-20T05:39:05.495Z,10.57
2022-11-20T05:42:26.923Z,12.20
2022-11-20T05:45:30.548Z,9.23
2022-11-20T05:48:35.232Z,11.40
2022-11-20T05:51:38.755Z,7.55
2022-11-20T05:54:42.111Z,16.35
2022-11-20T05:57:45.344Z,15.00
2022-11-20T06:00:48.533Z,8.82
2022-11-20T06:03:52.391Z,12.02
2022-11-20T06:06:55.564Z,8.82
2022-11-20T06:09:58.733Z,5.78
2022-11-20T06:13:02.384Z,6.82
2022-11-20T06:16:06.312Z,10.68
2022-11-20T06:19:10.040Z,8.13
2022-11-20T06:22:13.336Z,8.95
2022-11-20T06:25:16.713Z,10.80
2022-11-20T06:28:19.826Z,11.68
2022-11-20T06:31:25.185Z,11.85
2022-11-20T06:34:28.462Z,9.15
2022-11-20T06:37:31.773Z,11.00
2022-11-20T06:40:35.248Z,14.43
2022-11-20T06:43:38.573Z,10.90
2022-11-20T06:46:44.947Z,13.57
2022-11-20T06:49:48.271Z,8.95
2022-11-20T06:52:51.339Z,8.50
2022-11-20T06:55:58.732Z,22.48
2022-11-20T06:59:06.956Z,7.95
2022-11-20T07:02:15.351Z,10.35
2022-11-20T07:05:19.625Z,11.05
2022-11-20T07:08:22.773Z,8.63
2022-11-20T07:11:26.061Z,8.27
2022-11-20T07:14:29.586Z,10.82
2022-11-20T07:17:32.776Z,13.52
2022-11-20T07:20:35.976Z,17.42
2022-11-20T07:23:41.988Z,10.88
2022-11-20T07:26:49.363Z,9.82
2022-11-20T07:29:52.809Z,8.18
2022-11-20T07:32:57.713Z,14.30
2022-11-20T07:36:01.894Z,7.95
2022-11-20T07:39:05.154Z,16.45
2022-11-20T07:42:09.061Z,15.48
2022-11-20T07:45:14.187Z,12.68
2022-11-20T07:48:17.800Z,19.13
2022-11-20T07:51:21.143Z,32.10
2022-11-20T07:54:25.153Z,32.10
2022-11-20T07:57:28.573Z,26.35
2022-11-20T08:00:32.178Z,27.80
2022-11-20T08:03:35.881Z,20.10
2022-11-20T08:06:39.127Z,23.63
2022-11-20T08:09:42.563Z,22.00
2022-11-20T08:13:10.390Z,18.63
2022-11-20T08:16:13.741Z,16.45
2022-11-20T08:19:20.046Z,17.05
2022-11-20T08:22:23.673Z,29.10
2022-11-20T08:25:26.715Z,70.07
2022-11-20T08:28:30.056Z,238.35
2022-11-20T08:31:33.567Z,78.47
2022-11-20T08:34:36.642Z,28.10
2022-11-20T08:37:43.030Z,31.50
2022-11-20T08:41:05.998Z,22.45
2022-11-20T08:44:10.293Z,41.63
2022-11-20T08:47:14.985Z,26.30
2022-11-20T08:50:19.136Z,37.47
2022-11-20T08:53:22.692Z,21.52
2022-11-20T08:56:25.941Z,15.88
2022-11-20T08:59:58.672Z,16.75
2022-11-20T09:02:53.772Z,13.25
2022-11-20T09:09:06.809Z,15.20
2022-11-20T09:12:10.286Z,22.60
2022-11-20T09:15:14.300Z,16.25
2022-11-20T09:18:17.504Z,23.02
2022-11-20T09:21:20.901Z,22.33
2022-11-20T09:24:24.293Z,10.27
2022-11-20T09:27:27.392Z,13.00
2022-11-20T09:30:30.610Z,9.07
2022-11-20T09:33:33.904Z,6.28
2022-11-20T09:36:37.535Z,4.07
2022-11-20T09:39:41.462Z,4.50
2022-11-20T09:43:12.100Z,9.98
2022-11-20T09:46:36.737Z,27.45
2022-11-20T09:50:01.816Z,45.45
2022-11-20T09:53:17.061Z,19.80
2022-11-20T09:56:22.991Z,22.77
2022-11-20T09:59:42.632Z,29.65
2022-11-20T10:02:45.753Z,20.08
2022-11-20T10:06:02.048Z,49.90
2022-11-20T10:09:32.782Z,40.80
2022-11-20T10:12:36.027Z,28.45
2022-11-20T10:16:30.632Z,31.90
2022-11-20T10:19:47.291Z,17.60
2022-11-20T10:23:07.093Z,11.45
2022-11-20T10:26:42.595Z,15.73
2022-11-20T10:29:51.218Z,14.80
2022-11-20T10:32:58.057Z,13.35
2022-11-20T10:36:15.431Z,13.98
2022-11-20T10:39:51.293Z,23.48
2022-11-20T10:43:30.027Z,17.60
2022-11-20T10:47:09.530Z,20.02
2022-11-20T10:50:24.211Z,29.35
2022-11-20T10:54:10.216Z,14.95
2022-11-20T10:57:51.935Z,23.48
2022-11-20T11:01:15.377Z,30.30
2022-11-20T11:04:30.855Z,66.07
2022-11-20T11:07:40.938Z,39.78
2022-11-20T11:10:48.829Z,92.47
2022-11-20T11:14:07.220Z,38.90
2022-11-20T11:17:28.510Z,61.40
2022-11-20T11:20:33.456Z,64.05
2022-11-20T11:23:44.838Z,66.00
2022-11-20T11:27:05.588Z,207.77
2022-11-20T11:30:19.452Z,243.95
2022-11-20T11:33:25.328Z,241.13
2022-11-20T11:36:28.517Z,242.85
2022-11-20T11:39:33.147Z,134.55
2022-11-20T11:42:36.146Z,96.40
2022-11-20T11:45:39.426Z,166.88
2022-11-20T11:48:44.829Z,113.57
2022-11-20T11:52:02.540Z,66.82
2022-11-20T11:55:11.447Z,100.20
2022-11-20T11:58:42.790Z,97.15
2022-11-20T12:01:59.888Z,68.47
2022-11-20T12:05:13.571Z,86.57
2022-11-20T12:08:25.392Z,47.40
2022-11-20T12:12:10.232Z,49.80
2022-11-20T12:15:18.033Z,62.47
2022-11-20T12:18:23.332Z,79.70
2022-11-20T12:21:47.711Z,95.00
2022-11-20T12:25:15.093Z,155.63
2022-11-20T12:28:23.477Z,92.32
2022-11-20T12:31:34.910Z,23.83
2022-11-20T12:34:56.338Z,35.80
2022-11-20T12:38:26.339Z,18.02
2022-11-20T12:42:02.379Z,25.63
2022-11-20T12:45:31.411Z,28.83
2022-11-20T12:48:53.927Z,45.67
2022-11-20T12:52:12.434Z,44.47
2022-11-20T12:55:27.733Z,36.97
2022-11-20T12:58:47.976Z,27.30
2022-11-20T13:02:28.328Z,31.27
2022-11-20T13:06:12.179Z,117.15
2022-11-20T13:09:18.715Z,33.38
2022-11-20T13:12:37.987Z,32.08
2022-11-20T13:15:52.259Z,39.22
2022-11-20T13:21:58.439Z,18.30
2022-11-20T13:25:01.410Z,28.83
2022-11-20T13:28:31.355Z,26.13
2022-11-20T13:31:36.938Z,23.98
2022-11-20T13:34:40.293Z,22.45
2022-11-20T13:37:43.345Z,31.53
2022-11-20T13:40:57.474Z,34.00
2022-11-20T13:44:10.918Z,37.35
2022-11-20T13:47:27.180Z,31.52
2022-11-20T13:50:41.289Z,36.80
2022-11-20T13:54:05.307Z,24.73
2022-11-20T13:57:26.647Z,32.35
2022-11-20T14:00:29.892Z,30.27
2022-11-20T14:06:59.846Z,63.85
2022-11-20T14:10:02.921Z,58.83
2022-11-20T14:13:19.585Z,88.50
2022-11-20T14:16:23.746Z,82.05
2022-11-20T14:22:35.451Z,45.70
2022-11-20T14:25:39.048Z,46.53
2022-11-20T14:28:42.136Z,60.05
2022-11-20T14:31:49.955Z,60.92
2022-11-20T14:34:58.789Z,42.95
2022-11-20T14:38:03.834Z,46.05
2022-11-20T14:41:17.955Z,32.20
2022-11-20T14:44:29.966Z,38.10
2022-11-20T14:47:33.432Z,73.07
2022-11-20T14:50:36.479Z,48.67
2022-11-20T14:53:39.575Z,77.88
2022-11-20T14:56:42.659Z,55.53
2022-11-20T14:59:45.686Z,61.88
2022-11-20T15:02:52.617Z,53.95
2022-11-20T15:05:55.634Z,71.15
2022-11-20T15:08:59.141Z,61.33
2022-11-20T15:12:04.091Z,96.85
2022-11-20T15:15:08.274Z,105.57
2022-11-20T15:18:24.055Z,77.10
2022-11-20T15:21:27.244Z,72.47
2022-11-20T15:24:32.114Z,73.47
2022-11-20T15:27:35.095Z,65.38
2022-11-20T15:30:38.266Z,74.25
2022-11-20T15:33:41.656Z,92.27
2022-11-20T15:36:45.569Z,68.05
2022-11-20T15:39:50.263Z,80.78
2022-11-20T15:43:09.909Z,72.53
2022-11-20T15:46:27.901Z,96.70
2022-11-20T15:49:31.542Z,65.50
2022-11-20T15:52:41.931Z,45.38
2022-11-20T15:55:45.392Z,60.90
2022-11-20T15:58:48.578Z,42.20
2022-11-20T16:01:52.021Z,24.10
2022-11-20T16:04:55.488Z,30.67
2022-11-20T16:07:59.883Z,35.67
2022-11-20T16:11:03.324Z,21.20
2022-11-20T16:14:25.596Z,26.90
2022-11-20T16:17:44.170Z,34.00
2022-11-20T16:20:49.165Z,35.72
2022-11-20T16:23:52.143Z,18.33
2022-11-20T16:26:56.099Z,33.63
2022-11-20T16:29:59.058Z,32.75
2022-11-20T16:33:04.275Z,28.85
2022-11-20T16:36:16.579Z,37.65
2022-11-20T16:39:23.593Z,42.05
2022-11-20T16:42:26.992Z,31.13
2022-11-20T16:45:33.722Z,35.67
2022-11-20T16:48:37.077Z,11.02
2022-11-20T16:51:40.056Z,13.75
2022-11-20T16:54:43.163Z,21.60
2022-11-20T16:57:46.236Z,22.67
2022-11-20T17:00:51.859Z,8.07
2022-11-20T17:04:05.550Z,22.60
2022-11-20T17:07:09.106Z,16.55
2022-11-20T17:10:12.097Z,28.83
2022-11-20T17:13:15.084Z,19.67
2022-11-20T17:16:22.056Z,25.00
2022-11-20T17:19:25.134Z,38.97
2022-11-20T17:22:28.410Z,28.73
2022-11-20T17:25:34.627Z,20.08
2022-11-20T17:28:38.838Z,6.97
2022-11-20T17:31:42.720Z,29.40
2022-11-20T17:34:45.764Z,20.00
2022-11-20T17:37:48.725Z,42.55
2022-11-20T17:40:54.722Z,39.63
2022-11-20T17:44:00.484Z,18.75
2022-11-20T17:47:03.826Z,19.00
2022-11-20T17:50:07.963Z,30.83
2022-11-20T17:53:11.039Z,19.33
2022-11-20T17:56:32.530Z,18.23
2022-11-20T17:59:35.599Z,23.35
2022-11-20T18:02:38.614Z,19.50
2022-11-20T18:05:41.756Z,24.90
2022-11-20T18:08:45.334Z,31.80
2022-11-20T18:11:48.295Z,23.10
2022-11-20T18:14:51.287Z,46.70
2022-11-20T18:17:54.525Z,38.70
2022-11-20T18:20:57.518Z,16.25
2022-11-20T18:24:01.708Z,39.93
2022-11-20T18:27:06.378Z,38.00
2022-11-20T18:30:10.248Z,34.97
2022-11-20T18:33:13.956Z,29.90
2022-11-20T18:36:20.558Z,32.77
2022-11-20T18:39:24.217Z,25.23
2022-11-20T18:42:45.753Z,36.15
2022-11-20T18:45:48.792Z,54.87
2022-11-20T18:48:53.034Z,22.88
2022-11-20T18:51:56.103Z,26.37
2022-11-20T18:54:59.689Z,17.13
2022-11-20T18:58:02.616Z,28.80
2022-11-20T19:01:07.340Z,31.17
2022-11-20T19:04:12.232Z,25.17
2022-11-20T19:07:16.306Z,28.57
2022-11-20T19:13:23.562Z,29.50
2022-11-20T19:16:26.651Z,48.37
2022-11-20T19:19:29.747Z,32.17
2022-11-20T19:22:32.759Z,23.05
2022-11-20T19:25:38.317Z,45.40
2022-11-20T19:28:41.492Z,41.90
2022-11-20T19:31:44.606Z,40.37
2022-11-20T19:34:47.693Z,27.90
2022-11-20T19:37:53.675Z,47.35
2022-11-20T19:40:56.656Z,29.17
2022-11-20T19:44:04.887Z,51.57
2022-11-20T19:47:12.979Z,30.13
2022-11-20T19:50:17.487Z,36.70
2022-11-20T19:53:20.539Z,20.27
2022-11-20T19:56:25.766Z,54.93
2022-11-20T20:02:31.780Z,16.67
2022-11-20T20:05:35.271Z,40.63
2022-11-20T20:08:38.852Z,26.40
2022-11-20T20:11:46.324Z,20.75
2022-11-20T20:14:49.291Z,24.23
2022-11-20T20:17:55.528Z,28.87
2022-11-20T20:21:09.579Z,32.93
2022-11-20T20:24:13.236Z,41.22
2022-11-20T20:27:16.204Z,46.67
2022-11-20T20:30:19.224Z,26.13
2022-11-20T20:33:23.064Z,14.10
2022-11-20T20:36:27.034Z,22.30
2022-11-20T20:39:30.280Z,41.00
2022-11-20T20:42:33.570Z,36.65
2022-11-20T20:45:36.661Z,18.23
2022-11-20T20:48:39.630Z,19.92
2022-11-20T20:51:42.617Z,28.73
2022-11-20T20:54:45.531Z,26.43
2022-11-20T20:57:49.744Z,33.83
2022-11-20T21:00:53.712Z,30.43
2022-11-20T21:03:57.665Z,52.17
2022-11-20T21:10:04.411Z,36.40
2022-11-20T21:13:07.567Z,25.70
2022-11-20T21:16:11.685Z,18.50
2022-11-20T21:19:15.107Z,17.73
2022-11-20T21:22:18.297Z,53.67
2022-11-20T21:25:21.321Z,18.23
2022-11-20T21:28:24.301Z,47.72
2022-11-20T21:31:27.974Z,36.70
2022-11-20T21:34:30.949Z,14.98
2022-11-20T21:37:38.331Z,28.93
2022-11-20T21:40:44.118Z,15.00
2022-11-20T21:44:09.141Z,33.92
2022-11-20T21:47:10.324Z,23.67
2022-11-20T21:50:13.290Z,23.23
2022-11-20T21:53:16.291Z,16.30
2022-11-20T21:56:22.414Z,18.67
2022-11-20T21:59:25.420Z,13.17
2022-11-20T22:02:28.424Z,22.33
2022-11-20T22:05:31.381Z,19.65
2022-11-20T22:08:38.905Z,15.82
2022-11-20T22:11:41.923Z,27.17
2022-11-20T22:14:46.466Z,26.15
2022-11-20T22:18:07.671Z,12.77
2022-11-20T22:21:11.108Z,6.77
2022-11-20T22:24:16.730Z,33.03
2022-11-20T22:27:19.738Z,45.47
2022-11-20T22:30:22.873Z,23.15
2022-11-20T22:33:27.802Z,29.25
2022-11-20T22:36:32.179Z,37.93
2022-11-20T22:39:35.155Z,27.53
2022-11-20T22:42:38.137Z,18.20
2022-11-20T22:45:41.050Z,50.60
2022-11-20T22:48:51.315Z,32.33
2022-11-20T22:51:54.616Z,27.13
2022-11-20T22:54:57.756Z,13.45
2022-11-20T22:58:00.908Z,26.40
2022-11-20T23:01:11.046Z,21.65
2022-11-20T23:04:14.157Z,31.90
2022-11-20T23:07:17.362Z,29.95
2022-11-20T23:10:20.488Z,29.17
2022-11-20T23:13:23.409Z,19.77
2022-11-20T23:16:28.360Z,22.02
2022-11-20T23:19:31.358Z,25.70
2022-11-20T23:22:34.655Z,41.67
2022-11-20T23:25:37.628Z,16.52
2022-11-20T23:28:41.785Z,54.05
2022-11-20T23:31:44.752Z,42.13
2022-11-20T23:34:47.722Z,26.85
2022-11-20T23:37:50.737Z,40.00
2022-11-20T23:40:54.347Z,28.92
2022-11-20T23:43:57.351Z,24.40
2022-11-20T23:47:00.345Z,18.85
2022-11-20T23:50:03.327Z,34.35
2022-11-20T23:53:06.711Z,21.90
2022-11-20T23:56:09.825Z,23.17
2022-11-20T23:59:12.867Z,30.23
